Time;durP1;ratioP1;P1;durP2;ratioP2;P2;SDS_P1;SDS_P2;PMS_P1;PMS_P2;Temp;Humidity;BMP_temperature;BMP_pressure;BME280_temperature;BME280_humidity;BME280_pressure;Samples;Min_cycle;Max_cycle;Signal;HPM_P1;HPM_P2
2022/02/09 00:02:26;;;;;;;;;;;;;;;17.72;47.64;100968.63;4427096;32;20004;-73
2022/02/09 00:10:06;;;;;;;;;;;;;;;17.53;48.04;100975.66;3951976;32;15732197;-73
2022/02/09 00:15:33;;;;;;;;;;;;;;;17.74;47.99;100985.97;3956284;32;15725326;-73
2022/02/09 00:18:12;;;;;;;;;;;;;;;17.74;47.99;100985.97;4429718;32;19953;-73
2022/02/09 01:42:14;;;;;;;;;;;;;;;18.09;47.55;100925.66;3952174;32;15723610;-73
2022/02/09 01:57:11;;;;;;;;;;;;;;;17.95;47.45;100926.41;4425999;32;19957;-73
2022/02/09 01:59:37;;;;;;;;;;;;;;;17.53;48.22;100933.00;4418043;32;19968;-73
2022/02/09 02:02:04;;;;;;;;;;;;;;;17.92;47.61;100930.22;4429321;32;20432;-73
2022/02/09 02:04:29;;;;;;;;;;;;;;;18.01;47.12;100936.62;4426823;32;20067;-73
2022/02/09 02:06:55;;;;;;;;;;;;;;;17.82;47.55;100921.75;4429457;32;20287;-73
2022/02/09 02:09:22;;;;;;;;;;;;;;;18.03;47.17;100921.91;4427021;32;20357;-73
2022/02/09 02:11:53;;;;;;;;;;;;;;;17.90;47.46;100933.56;4429432;32;19965;-73
2022/02/09 02:19:42;;;;;;;;;;;;;;;18.17;47.07;100918.34;3965768;31;15716830;-72
2022/02/09 02:28:06;;;;;;;;;;;;;;;18.28;47.33;100918.56;3952523;32;15722579;-72
2022/02/09 02:33:49;;;;;;;;;;;;;;;17.87;47.78;100938.16;4434597;32;19971;-74
2022/02/09 02:58:45;;;;;;;;;;;;;;;18.00;48.11;100902.94;4432825;32;19972;-73
2022/02/09 03:08:54;;;;;;;;;;;;;;;17.64;49.29;100913.31;4428055;32;20249;-72
2022/02/09 03:11:37;;;;;;;;;;;;;;;17.10;49.85;100839.59;4430186;32;20068;-72
2022/02/09 03:14:11;;;;;;;;;;;;;;;17.81;49.24;100922.22;4427168;32;19998;-72
2022/02/09 03:16:42;;;;;;;;;;;;;;;17.53;50.33;100917.97;4430835;32;20007;-72
2022/02/09 03:24:54;;;;;;;;;;;;;;;17.78;50.57;100912.59;3953136;32;15720409;-72
2022/02/09 03:44:30;;;;;;;;;;;;;;;17.77;50.42;100911.00;4444960;32;19985;-72
2022/02/09 03:54:38;;;;;;;;;;;;;;;18.32;50.42;100917.12;3953196;32;15724628;-72
2022/02/09 03:57:10;;;;;;;;;;;;;;;18.32;50.42;100917.12;4428315;32;20415;-72
2022/02/09 03:59:36;;;;;;;;;;;;;;;17.32;52.36;100911.25;4428798;32;19997;-72
2022/02/09 04:02:03;;;;;;;;;;;;;;;17.14;52.92;100936.09;4425247;32;20273;-72
2022/02/09 04:04:29;;;;;;;;;;;;;;;17.83;51.49;100931.84;4427978;32;19961;-72
2022/02/09 04:06:54;;;;;;;;;;;;;;;17.85;51.18;100929.31;4431735;32;19945;-72
2022/02/09 04:09:26;;;;;;;;;;;;;;;17.79;51.32;100931.25;4429942;32;19961;-72
2022/02/09 04:14:49;;;;;;;;;;;;;;;18.01;50.77;100933.78;4428043;32;19969;-72
2022/02/09 04:39:28;;;;;;;;;;;;;;;17.18;47.67;101024.91;4429001;32;19983;-71
2022/02/09 04:42:05;;;;;;;;;;;;;;;16.82;47.66;101030.63;4426248;32;20320;-71
2022/02/09 04:53:22;;;;;;;;;;;;;;;16.86;46.96;101022.72;3950683;32;15727620;-72
2022/02/09 04:58:05;;;;;;;;;;;;;;;16.76;47.23;101007.75;3954755;32;15725556;-71
2022/02/09 05:00:43;;;;;;;;;;;;;;;16.76;47.23;101007.75;4435031;32;20000;-71
2022/02/09 05:27:49;;;;;;;;;;;;;;;17.22;45.57;101028.38;3952143;32;15722546;-72
2022/02/09 05:30:15;;;;;;;;;;;;;;;17.22;45.57;101028.38;4431990;32;20641;-72
2022/02/09 05:32:41;;;;;;;;;;;;;;;17.12;45.58;101024.75;4432736;32;19972;-72
2022/02/09 05:35:07;;;;;;;;;;;;;;;17.03;45.56;101029.66;4434525;32;19977;-72
2022/02/09 05:37:32;;;;;;;;;;;;;;;16.33;47.29;101019.38;4430067;32;19996;-72
2022/02/09 05:39:58;;;;;;;;;;;;;;;16.63;46.64;101037.59;4431842;32;19976;-72
2022/02/09 05:42:25;;;;;;;;;;;;;;;16.94;46.02;101041.81;4431201;32;19962;-72
2022/02/09 05:44:50;;;;;;;;;;;;;;;16.73;46.24;101053.38;4428732;32;20438;-72
2022/02/09 05:50:17;;;;;;;;;;;;;;;17.07;45.63;101051.00;4428942;32;19965;-72
2022/02/09 05:52:57;;;;;;;;;;;;;;;17.20;45.40;101047.94;4426214;32;19985;-72
2022/02/09 05:56:06;;;;;;;;;;;;;;;16.79;46.18;101046.59;4433180;32;19988;-72
2022/02/09 05:58:14;;;;;;;;;;;;;;;17.04;45.79;101051.13;4431401;32;20443;-72
2022/02/09 06:00:47;;;;;;;;;;;;;;;17.02;45.85;101047.97;4428066;32;20448;-72
2022/02/09 06:03:13;;;;;;;;;;;;;;;16.86;46.14;101040.56;4430920;32;19953;-72
2022/02/09 06:05:39;;;;;;;;;;;;;;;17.13;45.47;101043.41;4430823;32;20034;-72
2022/02/09 06:08:05;;;;;;;;;;;;;;;16.82;45.77;101053.38;4431079;32;20033;-72
2022/02/09 06:10:33;;;;;;;;;;;;;;;16.70;46.39;101049.44;4431997;32;20010;-72
2022/02/09 06:16:07;;;;;;;;;;;;;;;17.21;45.51;101058.09;3951381;32;15826549;-72
2022/02/09 06:21:20;;;;;;;;;;;;;;;16.90;45.63;101068.81;4426830;32;20008;-72
2022/02/09 06:23:46;;;;;;;;;;;;;;;16.74;45.86;101060.63;4427751;32;19950;-72
2022/02/09 06:26:12;;;;;;;;;;;;;;;17.01;44.97;101052.09;4428306;32;19953;-72
2022/02/09 06:28:37;;;;;;;;;;;;;;;16.93;45.28;101057.31;4430507;32;20365;-73
2022/02/09 06:31:03;;;;;;;;;;;;;;;16.74;45.47;101061.41;4425146;32;20035;-72
2022/02/09 06:33:29;;;;;;;;;;;;;;;16.70;45.67;101069.31;4427863;32;20031;-72
2022/02/09 06:35:58;;;;;;;;;;;;;;;16.73;45.63;101071.22;4428996;32;20368;-72
2022/02/09 06:38:23;;;;;;;;;;;;;;;17.03;44.98;101066.63;4429419;32;19946;-72
2022/02/09 06:40:54;;;;;;;;;;;;;;;16.95;44.88;101069.00;4429133;32;20025;-72
2022/02/09 06:43:20;;;;;;;;;;;;;;;17.10;44.68;101067.09;4429227;32;19998;-72
2022/02/09 06:45:45;;;;;;;;;;;;;;;16.80;45.33;101068.06;4430078;32;19987;-72
2022/02/09 06:48:13;;;;;;;;;;;;;;;17.05;44.26;101070.56;4429316;32;19996;-72
2022/02/09 06:50:43;;;;;;;;;;;;;;;17.06;44.53;101060.78;4428740;32;20077;-72
2022/02/09 06:53:28;;;;;;;;;;;;;;;16.79;44.72;101057.97;4424720;32;19989;-72
2022/02/09 06:55:57;;;;;;;;;;;;;;;17.01;44.08;101063.47;4428341;32;20461;-72
2022/02/09 06:58:44;;;;;;;;;;;;;;;16.83;44.58;101069.16;4429808;32;19957;-72
2022/02/09 07:01:09;;;;;;;;;;;;;;;16.65;44.75;101069.12;4428365;32;20040;-72
2022/02/09 07:03:35;;;;;;;;;;;;;;;16.95;43.87;101080.38;4427410;32;19973;-73
2022/02/09 07:06:00;;;;;;;;;;;;;;;16.79;44.01;101080.69;4415212;32;19967;-72
2022/02/09 07:08:27;;;;;;;;;;;;;;;16.74;44.13;101072.00;4423270;32;19954;-72
2022/02/09 07:10:52;;;;;;;;;;;;;;;16.64;44.33;101076.09;4429145;32;20391;-72
2022/02/09 07:13:19;;;;;;;;;;;;;;;17.06;43.79;101080.66;4425300;32;19958;-72
2022/02/09 07:15:49;;;;;;;;;;;;;;;16.75;44.58;101080.03;4427502;32;20001;-72
2022/02/09 07:18:16;;;;;;;;;;;;;;;16.57;45.05;101071.50;4427980;32;20376;-72
2022/02/09 07:23:33;;;;;;;;;;;;;;;17.33;44.11;101089.19;3950780;32;15741584;-73
2022/02/09 07:26:05;;;;;;;;;;;;;;;17.33;44.11;101089.19;4430088;32;19998;-73
2022/02/09 07:28:31;;;;;;;;;;;;;;;16.95;44.63;101093.78;4429653;32;19994;-73
2022/02/09 07:30:57;;;;;;;;;;;;;;;16.94;44.75;101090.16;4426740;32;20009;-73
2022/02/09 07:33:22;;;;;;;;;;;;;;;17.07;44.36;101098.53;4424184;32;19977;-73
2022/02/09 07:35:48;;;;;;;;;;;;;;;17.06;44.38;101100.56;4428730;32;20124;-73
2022/02/09 07:38:13;;;;;;;;;;;;;;;17.31;43.98;101088.84;4428760;32;20044;-73
2022/02/09 07:40:42;;;;;;;;;;;;;;;17.03;44.43;101087.31;4423717;32;20482;-73
2022/02/09 07:43:15;;;;;;;;;;;;;;;16.85;44.64;101090.19;4418238;32;19992;-73
2022/02/09 07:51:39;;;;;;;;;;;;;;;16.95;44.49;101108.81;3944878;32;15722453;-72
2022/02/09 07:53:49;;;;;;;;;;;;;;;16.76;44.49;101092.22;4423861;32;21356;-73
2022/02/09 07:56:15;;;;;;;;;;;;;;;16.57;44.88;101101.97;4403313;32;20347;-73
2022/02/09 07:58:41;;;;;;;;;;;;;;;16.65;44.71;101103.25;4419388;32;20025;-73
2022/02/09 08:01:06;;;;;;;;;;;;;;;16.79;44.28;101117.66;4416675;32;19976;-73
2022/02/09 08:03:32;;;;;;;;;;;;;;;16.70;44.31;101117.63;4414273;32;20320;-72
2022/02/09 08:05:59;;;;;;;;;;;;;;;16.36;45.06;101111.37;4417654;32;20007;-72
2022/02/09 08:08:29;;;;;;;;;;;;;;;16.88;43.92;101117.63;4419446;32;19997;-72
2022/02/09 08:10:58;;;;;;;;;;;;;;;17.30;43.06;101115.75;4414959;32;20043;-73
2022/02/09 08:30:21;;;;;;;;;;;;;;;17.82;41.66;101125.94;3945573;32;15723615;-72
2022/02/09 08:32:40;;;;;;;;;;;;;;;17.82;41.66;101125.94;4415083;32;19961;-73
2022/02/09 08:35:07;;;;;;;;;;;;;;;17.46;41.79;101137.41;4419314;32;20014;-72
2022/02/09 08:37:36;;;;;;;;;;;;;;;17.34;41.98;101133.41;4418045;32;20368;-73
2022/02/09 08:40:02;;;;;;;;;;;;;;;17.87;41.02;101140.31;4407355;32;20350;-72
2022/02/09 08:42:28;;;;;;;;;;;;;;;17.27;42.08;101139.44;4416369;32;20279;-72
2022/02/09 08:44:54;;;;;;;;;;;;;;;17.78;41.35;101136.69;4418388;32;20001;-72
2022/02/09 08:47:20;;;;;;;;;;;;;;;17.55;41.66;101143.09;4421091;32;20415;-72
2022/02/09 08:49:47;;;;;;;;;;;;;;;17.36;41.90;101150.03;4420242;32;19996;-71
2022/02/09 08:52:13;;;;;;;;;;;;;;;17.95;40.96;101162.75;4416137;32;20012;-72
2022/02/09 08:54:38;;;;;;;;;;;;;;;17.68;41.37;101164.38;4417715;32;20001;-73
2022/02/09 08:57:09;;;;;;;;;;;;;;;17.87;40.89;101177.34;4418279;32;20039;-72
2022/02/09 08:59:36;;;;;;;;;;;;;;;18.30;39.89;101167.53;4421242;32;19965;-71
2022/02/09 09:02:05;;;;;;;;;;;;;;;17.47;41.77;101175.97;4418293;32;19964;-73
2022/02/09 09:04:36;;;;;;;;;;;;;;;18.32;40.17;101179.25;4406980;32;20501;-73
2022/02/09 09:07:09;;;;;;;;;;;;;;;18.79;39.49;101184.25;4420400;32;20060;-73
2022/02/09 09:09:52;;;;;;;;;;;;;;;18.27;40.95;101182.75;4403324;32;19989;-72
2022/02/09 09:16:20;;;;;;;;;;;;;;;18.42;41.51;101188.56;3946139;32;15725434;-73
2022/02/09 10:01:54;;;;;;;;;;;;;;;19.15;37.83;101261.81;3945673;32;15723615;-74
2022/02/09 10:04:38;;;;;;;;;;;;;;;19.15;37.83;101261.81;4414518;32;19962;-73
2022/02/09 10:35:27;;;;;;;;;;;;;;;19.56;36.27;101275.19;3946831;32;15722587;-72
2022/02/09 10:37:53;;;;;;;;;;;;;;;19.56;36.27;101275.19;4422081;32;20015;-72
2022/02/09 10:40:27;;;;;;;;;;;;;;;19.70;35.63;101267.94;4421363;32;19996;-73
2022/02/09 10:42:59;;;;;;;;;;;;;;;20.11;35.03;101261.19;4422106;32;19965;-73
2022/02/09 10:48:00;;;;;;;;;;;;;;;19.38;35.97;101263.13;3941000;32;15731579;-73
2022/02/09 10:50:30;;;;;;;;;;;;;;;19.08;36.42;101270.72;4421015;32;19993;-73
2022/02/09 10:52:59;;;;;;;;;;;;;;;19.40;35.79;101277.69;4419220;32;19961;-73
2022/02/09 10:55:47;;;;;;;;;;;;;;;19.52;35.75;101262.38;4422163;32;19962;-72
2022/02/09 10:58:14;;;;;;;;;;;;;;;19.30;35.97;101265.53;4420973;32;19953;-73
2022/02/09 11:00:43;;;;;;;;;;;;;;;19.46;35.81;101265.09;4418712;32;20005;-73
2022/02/09 11:03:13;;;;;;;;;;;;;;;18.78;36.93;101273.91;4417514;32;20001;-74
2022/02/09 11:05:39;;;;;;;;;;;;;;;19.13;36.29;101275.78;4419903;32;20712;-73
2022/02/09 11:08:06;;;;;;;;;;;;;;;18.62;36.92;101268.63;4422352;32;19958;-73
2022/02/09 11:10:31;;;;;;;;;;;;;;;18.47;37.25;101290.53;4419204;32;20317;-74
2022/02/09 11:12:57;;;;;;;;;;;;;;;18.72;36.73;101279.47;4421325;32;20004;-73
2022/02/09 11:15:23;;;;;;;;;;;;;;;19.02;36.55;101289.03;4420641;32;19985;-72
2022/02/09 11:17:49;;;;;;;;;;;;;;;19.13;36.03;101286.41;4420288;32;20553;-73
2022/02/09 11:20:19;;;;;;;;;;;;;;;18.70;36.89;101293.44;4422491;32;20489;-73
2022/02/09 11:22:45;;;;;;;;;;;;;;;19.04;36.10;101292.16;4422409;32;19981;-72
2022/02/09 11:27:54;;;;;;;;;;;;;;;20.37;34.06;101304.31;3949507;32;15723473;-72
2022/02/09 11:33:00;;;;;;;;;;;;;;;20.29;33.73;101295.34;3945659;32;15723384;-74
2022/02/09 11:35:30;;;;;;;;;;;;;;;20.29;33.73;101295.34;4419582;32;19958;-74
2022/02/09 11:40:39;;;;;;;;;;;;;;;20.99;32.36;101297.03;3944877;32;15724513;-73
2022/02/09 11:51:35;;;;;;;;;;;;;;;22.51;28.28;101305.72;3942637;32;15730783;-73
2022/02/09 12:11:11;;;;;;;;;;;;;;;21.42;28.62;101316.16;4417639;32;20100;-73
2022/02/09 12:19:09;;;;;;;;;;;;;;;21.47;29.00;101306.06;3945701;32;15724583;-73
2022/02/09 12:24:27;;;;;;;;;;;;;;;21.87;28.58;101311.03;3958872;32;15729415;-71
2022/02/09 12:29:30;;;;;;;;;;;;;;;23.23;26.66;101315.69;3944169;32;15721461;-74
2022/02/09 12:31:55;;;;;;;;;;;;;;;23.23;26.66;101315.69;4419662;32;20033;-72
2022/02/09 12:34:23;;;;;;;;;;;;;;;23.26;26.23;101321.22;4421962;32;19996;-72
2022/02/09 12:36:49;;;;;;;;;;;;;;;22.74;26.31;101307.50;4422509;32;19997;-72
2022/02/09 12:39:15;;;;;;;;;;;;;;;22.45;27.11;101311.37;4423292;32;19986;-72
2022/02/09 12:41:44;;;;;;;;;;;;;;;21.85;26.83;101316.47;4419971;32;20775;-73
2022/02/09 12:44:10;;;;;;;;;;;;;;;22.26;26.45;101300.75;4418396;32;20012;-73
2022/02/09 12:46:37;;;;;;;;;;;;;;;22.14;26.85;101308.47;4422844;32;19975;-74
2022/02/09 12:49:05;;;;;;;;;;;;;;;22.21;26.61;101315.84;4422325;32;19966;-74
2022/02/09 12:51:31;;;;;;;;;;;;;;;22.26;26.80;101324.50;4421735;32;20017;-73
2022/02/09 12:53:59;;;;;;;;;;;;;;;23.57;25.55;101314.59;4422146;32;19949;-72
2022/02/09 12:56:28;;;;;;;;;;;;;;;24.86;24.25;101324.63;4419872;32;19981;-72
2022/02/09 12:58:59;;;;;;;;;;;;;;;25.66;22.64;101322.66;4420703;32;20217;-72
2022/02/09 13:01:25;;;;;;;;;;;;;;;26.18;22.48;101322.69;4417708;32;19980;-70
2022/02/09 13:03:51;;;;;;;;;;;;;;;24.44;23.91;101321.16;4414570;32;19965;-72
2022/02/09 13:06:16;;;;;;;;;;;;;;;24.77;23.33;101333.53;4424118;32;19957;-72
2022/02/09 13:08:49;;;;;;;;;;;;;;;24.71;23.37;101314.69;4409337;32;20761;-72
2022/02/09 13:11:19;;;;;;;;;;;;;;;24.29;23.54;101324.28;4418654;32;20316;-72
2022/02/09 13:13:54;;;;;;;;;;;;;;;23.58;24.49;101324.78;4423504;32;19988;-72
2022/02/09 13:16:55;;;;;;;;;;;;;;;21.59;26.86;101328.63;4421259;32;20046;-72
2022/02/09 14:17:14;;;;;;;;;;;;;;;23.95;23.75;101305.38;4424449;32;20023;-72
2022/02/09 14:34:44;;;;;;;;;;;;;;;28.13;18.63;101324.00;4419619;32;20030;-72
2022/02/09 14:53:00;;;;;;;;;;;;;;;30.22;16.28;101342.66;4417789;32;19997;-73
2022/02/09 14:58:14;;;;;;;;;;;;;;;30.00;16.03;101352.59;4412442;32;19973;-74
2022/02/09 15:00:55;;;;;;;;;;;;;;;30.30;16.06;101338.50;4414019;32;20011;-72
2022/02/09 15:06:41;;;;;;;;;;;;;;;30.10;16.15;101339.19;3947471;32;15723471;-73
2022/02/09 15:09:32;;;;;;;;;;;;;;;30.10;16.15;101339.19;4426649;32;20107;-73
2022/02/09 15:11:38;;;;;;;;;;;;;;;29.26;16.75;101341.41;4409191;32;20091;-73
2022/02/09 15:22:03;;;;;;;;;;;;;;;31.30;15.45;101336.06;3945463;32;15725499;-72
2022/02/09 15:24:41;;;;;;;;;;;;;;;31.30;15.45;101336.06;4419800;32;20116;-72
2022/02/09 15:27:11;;;;;;;;;;;;;;;31.01;15.23;101329.38;4417911;32;20012;-72
2022/02/09 15:29:37;;;;;;;;;;;;;;;30.40;15.98;101324.31;4415438;32;19972;-72
2022/02/09 15:32:49;;;;;;;;;;;;;;;30.85;15.75;101318.97;4414252;32;21495;-73
2022/02/09 15:35:17;;;;;;;;;;;;;;;30.47;15.90;101329.41;4415995;32;20027;-74
2022/02/09 15:37:55;;;;;;;;;;;;;;;29.43;16.80;101315.78;4420381;32;20002;-72
2022/02/09 15:40:33;;;;;;;;;;;;;;;27.41;18.54;101304.63;4419256;32;20028;-72
2022/02/09 15:43:13;;;;;;;;;;;;;;;25.07;20.87;101297.09;4419578;32;19953;-72
2022/02/09 15:56:58;;;;;;;;;;;;;;;20.49;27.36;101275.41;4419025;32;19983;-72
2022/02/09 15:59:44;;;;;;;;;;;;;;;19.11;29.13;101277.53;4420592;32;20001;-72
2022/02/09 16:10:36;;;;;;;;;;;;;;;19.19;28.80;101287.31;3953492;32;15724330;-73
2022/02/09 16:19:30;;;;;;;;;;;;;;;18.38;29.61;101293.41;4427082;32;19989;-74
2022/02/09 16:24:13;;;;;;;;;;;;;;;18.45;29.33;101282.44;4414255;32;20382;-73
2022/02/09 16:38:27;;;;;;;;;;;;;;;18.10;29.24;101286.91;4430422;32;20185;-73
2022/02/09 16:46:03;;;;;;;;;;;;;;;18.48;29.39;101277.84;4432179;32;20578;-73
2022/02/09 16:48:32;;;;;;;;;;;;;;;18.14;29.55;101276.16;4433675;32;19960;-73
2022/02/09 16:51:00;;;;;;;;;;;;;;;17.91;29.86;101267.50;4435070;32;19972;-74
2022/02/09 17:15:43;;;;;;;;;;;;;;;16.70;32.33;101287.38;4432929;32;19965;-73
2022/02/09 17:20:55;;;;;;;;;;;;;;;17.06;31.92;101270.44;4435061;32;20004;-73
2022/02/09 17:23:21;;;;;;;;;;;;;;;16.93;32.22;101267.69;4433808;32;20031;-73
2022/02/09 17:25:47;;;;;;;;;;;;;;;17.03;32.16;101260.75;4435285;32;19957;-72
2022/02/09 17:28:15;;;;;;;;;;;;;;;17.18;32.05;101252.44;4434374;32;19980;-72
2022/02/09 17:36:13;;;;;;;;;;;;;;;17.20;32.71;101264.13;4428687;32;19953;-72
2022/02/09 17:38:48;;;;;;;;;;;;;;;16.68;33.47;101262.25;4427236;32;20001;-73
2022/02/09 18:00:16;;;;;;;;;;;;;;;17.06;33.49;101301.72;3952259;32;15724559;-72
2022/02/09 18:02:44;;;;;;;;;;;;;;;17.06;33.49;101301.72;4431894;32;20007;-72
2022/02/09 18:05:19;;;;;;;;;;;;;;;16.61;33.80;101284.47;4436293;32;20382;-72
2022/02/09 18:07:48;;;;;;;;;;;;;;;16.62;33.76;101284.00;4434258;32;19961;-72
2022/02/09 18:10:23;;;;;;;;;;;;;;;16.70;33.69;101276.78;4432828;32;19985;-72
2022/02/09 18:59:28;;;;;;;;;;;;;;;16.70;33.23;101271.09;4430564;32;20967;-72
2022/02/09 19:15:37;;;;;;;;;;;;;;;16.69;33.29;101282.94;4426458;32;20012;-71
2022/02/09 19:18:28;;;;;;;;;;;;;;;16.13;34.32;101277.41;4429301;32;20440;-72
2022/02/09 19:31:45;;;;;;;;;;;;;;;16.48;33.66;101278.91;4425176;32;19985;-72
2022/02/09 19:45:32;;;;;;;;;;;;;;;16.54;33.34;101264.88;4426466;32;19949;-72
2022/02/09 19:50:50;;;;;;;;;;;;;;;16.33;34.38;101266.50;3950530;32;15725283;-72
2022/02/09 19:53:41;;;;;;;;;;;;;;;16.28;34.34;101261.41;4431041;32;19965;-72
2022/02/09 19:56:09;;;;;;;;;;;;;;;16.21;34.73;101273.06;4427519;32;20339;-72
2022/02/09 19:58:42;;;;;;;;;;;;;;;16.08;35.08;101263.03;4431639;32;20034;-72
2022/02/09 20:01:10;;;;;;;;;;;;;;;16.18;35.15;101258.97;4426269;32;19996;-72
2022/02/09 20:03:36;;;;;;;;;;;;;;;16.15;35.31;101259.91;4431392;32;19973;-72
2022/02/09 20:06:01;;;;;;;;;;;;;;;15.98;35.30;101267.06;4428916;32;21009;-71
2022/02/09 20:08:27;;;;;;;;;;;;;;;16.12;34.96;101250.28;4430085;32;20044;-72
2022/02/09 20:10:52;;;;;;;;;;;;;;;16.24;34.99;101246.56;4431190;32;20033;-72
2022/02/09 20:13:18;;;;;;;;;;;;;;;16.24;34.97;101255.09;4428095;32;20198;-72
2022/02/09 20:15:43;;;;;;;;;;;;;;;16.15;35.25;101255.03;4415093;32;19996;-72
2022/02/09 20:18:09;;;;;;;;;;;;;;;16.17;34.99;101254.56;4428292;32;20031;-72
2022/02/09 20:20:36;;;;;;;;;;;;;;;16.10;35.09;101246.31;4428702;32;19957;-72
2022/02/09 20:23:02;;;;;;;;;;;;;;;16.26;34.81;101251.78;4427807;32;20383;-72
2022/02/09 20:25:28;;;;;;;;;;;;;;;16.25;34.73;101250.97;4428008;32;20005;-72
2022/02/09 20:27:55;;;;;;;;;;;;;;;16.24;34.81;101249.41;4429569;32;20022;-72
2022/02/09 20:30:25;;;;;;;;;;;;;;;16.39;34.53;101247.59;4430468;32;19965;-71
2022/02/09 20:32:57;;;;;;;;;;;;;;;16.44;34.73;101243.37;4429035;32;20005;-72
2022/02/09 20:35:23;;;;;;;;;;;;;;;16.57;34.13;101250.50;4432390;32;19966;-72
2022/02/09 20:37:52;;;;;;;;;;;;;;;16.61;34.08;101242.66;4430395;32;19986;-72
2022/02/09 20:40:23;;;;;;;;;;;;;;;16.63;34.14;101245.81;4430849;32;19977;-72
2022/02/09 20:42:53;;;;;;;;;;;;;;;16.62;34.08;101232.84;4424869;32;19981;-72
2022/02/09 20:45:26;;;;;;;;;;;;;;;16.52;34.25;101231.25;4431046;32;20349;-72
2022/02/09 20:47:59;;;;;;;;;;;;;;;16.68;34.00;101231.00;4428681;32;20004;-72
2022/02/09 20:50:25;;;;;;;;;;;;;;;16.64;34.20;101230.34;4431448;32;20001;-71
2022/02/09 20:52:50;;;;;;;;;;;;;;;16.44;34.59;101220.66;4427463;32;20013;-72
2022/02/09 20:55:16;;;;;;;;;;;;;;;16.57;34.62;101227.78;4429505;32;19964;-72
2022/02/09 20:57:42;;;;;;;;;;;;;;;16.61;34.71;101228.44;4414449;32;20001;-72
2022/02/09 21:00:12;;;;;;;;;;;;;;;16.61;34.98;101225.59;4423267;32;19957;-72
2022/02/09 21:05:39;;;;;;;;;;;;;;;16.76;34.46;101212.41;3952324;32;15726538;-73
2022/02/09 21:08:13;;;;;;;;;;;;;;;16.79;34.41;101199.28;4429069;32;20338;-71
2022/02/09 21:10:48;;;;;;;;;;;;;;;16.41;34.84;101198.81;4429464;32;19997;-72
2022/02/09 21:13:37;;;;;;;;;;;;;;;16.37;34.44;101206.69;4427555;32;19999;-72
2022/02/09 21:25:42;;;;;;;;;;;;;;;16.91;33.49;101221.09;4428045;32;20030;-72
2022/02/09 21:56:54;;;;;;;;;;;;;;;17.00;34.00;101226.81;3950125;32;15731337;-71
2022/02/09 22:26:45;;;;;;;;;;;;;;;16.53;36.64;101217.81;3951609;32;15729647;-72
2022/02/09 22:48:37;;;;;;;;;;;;;;;16.49;36.68;101188.78;4414569;32;20101;-71
2022/02/09 22:56:34;;;;;;;;;;;;;;;16.60;36.46;101186.28;4430098;32;19965;-71
2022/02/09 22:59:01;;;;;;;;;;;;;;;16.62;36.66;101195.12;4430560;32;20038;-71
2022/02/09 23:02:05;;;;;;;;;;;;;;;16.55;36.40;101178.38;4429781;32;19987;-71
2022/02/09 23:07:10;;;;;;;;;;;;;;;17.24;35.92;101177.38;3951630;32;15722489;-72
2022/02/09 23:09:46;;;;;;;;;;;;;;;17.24;35.92;101177.38;4428691;32;20309;-72
2022/02/09 23:15:14;;;;;;;;;;;;;;;17.22;36.01;101168.53;3952726;32;15729540;-72
2022/02/09 23:18:11;;;;;;;;;;;;;;;17.22;36.01;101168.53;4436111;32;19985;-72
